sensor_id;sensor_type;location;lat;lon;timestamp;P1;durP1;ratioP1;P2;durP2;ratioP2
58222;SDS011;44020;50.890;15.796;2024-02-28T00:01:12;72.70;;;26.90;;
58222;SDS011;44020;50.890;15.796;2024-02-28T00:03:45;66.90;;;26.80;;
58222;SDS011;44020;50.890;15.796;2024-02-28T00:06:15;72.60;;;27.50;;
58222;SDS011;44020;50.890;15.796;2024-02-28T00:08:43;74.60;;;28.00;;
58222;SDS011;44020;50.890;15.796;2024-02-28T00:11:11;67.60;;;27.70;;
58222;SDS011;44020;50.890;15.796;2024-02-28T00:13:38;75.90;;;27.90;;
58222;SDS011;44020;50.890;15.796;2024-02-28T00:16:05;69.20;;;27.90;;
58222;SDS011;44020;50.890;15.796;2024-02-28T00:18:32;64.20;;;25.60;;
58222;SDS011;44020;50.890;15.796;2024-02-28T00:21:00;61.20;;;23.80;;
58222;SDS011;44020;50.890;15.796;2024-02-28T00:23:27;74.10;;;25.50;;
58222;SDS011;44020;50.890;15.796;2024-02-28T00:25:54;68.80;;;25.40;;
58222;SDS011;44020;50.890;15.796;2024-02-28T00:28:22;64.30;;;24.50;;
58222;SDS011;44020;50.890;15.796;2024-02-28T00:30:49;59.90;;;23.30;;
58222;SDS011;44020;50.890;15.796;2024-02-28T00:33:16;55.90;;;23.00;;
58222;SDS011;44020;50.890;15.796;2024-02-28T00:35:44;54.80;;;22.30;;
58222;SDS011;44020;50.890;15.796;2024-02-28T00:38:11;58.40;;;23.40;;
58222;SDS011;44020;50.890;15.796;2024-02-28T00:40:38;63.10;;;23.60;;
58222;SDS011;44020;50.890;15.796;2024-02-28T00:43:05;67.60;;;24.90;;
58222;SDS011;44020;50.890;15.796;2024-02-28T00:45:32;63.70;;;24.10;;
58222;SDS011;44020;50.890;15.796;2024-02-28T00:48:00;62.80;;;24.40;;
58222;SDS011;44020;50.890;15.796;2024-02-28T00:50:27;56.90;;;23.70;;
58222;SDS011;44020;50.890;15.796;2024-02-28T00:52:54;68.90;;;25.50;;
58222;SDS011;44020;50.890;15.796;2024-02-28T00:55:21;71.20;;;25.10;;
58222;SDS011;44020;50.890;15.796;2024-02-28T00:57:48;67.50;;;26.40;;
58222;SDS011;44020;50.890;15.796;2024-02-28T01:00:15;68.00;;;26.80;;
58222;SDS011;44020;50.890;15.796;2024-02-28T01:02:42;73.30;;;27.40;;
58222;SDS011;44020;50.890;15.796;2024-02-28T01:05:09;72.70;;;26.90;;
58222;SDS011;44020;50.890;15.796;2024-02-28T01:07:37;70.00;;;26.10;;
58222;SDS011;44020;50.890;15.796;2024-02-28T01:10:05;64.80;;;25.50;;
58222;SDS011;44020;50.890;15.796;2024-02-28T01:12:33;62.00;;;24.70;;
58222;SDS011;44020;50.890;15.796;2024-02-28T01:15:01;67.00;;;25.50;;
58222;SDS011;44020;50.890;15.796;2024-02-28T01:17:30;63.20;;;24.60;;
58222;SDS011;44020;50.890;15.796;2024-02-28T01:19:57;66.70;;;24.20;;
58222;SDS011;44020;50.890;15.796;2024-02-28T01:22:24;65.30;;;25.20;;
58222;SDS011;44020;50.890;15.796;2024-02-28T01:24:52;63.90;;;25.10;;
58222;SDS011;44020;50.890;15.796;2024-02-28T01:27:20;64.10;;;26.40;;
58222;SDS011;44020;50.890;15.796;2024-02-28T01:29:47;63.20;;;25.90;;
58222;SDS011;44020;50.890;15.796;2024-02-28T01:32:14;62.50;;;25.20;;
58222;SDS011;44020;50.890;15.796;2024-02-28T01:34:41;61.60;;;25.80;;
58222;SDS011;44020;50.890;15.796;2024-02-28T01:37:08;59.20;;;23.70;;
58222;SDS011;44020;50.890;15.796;2024-02-28T01:39:35;60.90;;;23.70;;
58222;SDS011;44020;50.890;15.796;2024-02-28T01:42:03;58.50;;;23.90;;
58222;SDS011;44020;50.890;15.796;2024-02-28T01:44:30;60.80;;;22.90;;
58222;SDS011;44020;50.890;15.796;2024-02-28T01:46:58;58.00;;;23.00;;
58222;SDS011;44020;50.890;15.796;2024-02-28T01:49:25;69.80;;;27.40;;
58222;SDS011;44020;50.890;15.796;2024-02-28T01:51:53;66.10;;;26.90;;
58222;SDS011;44020;50.890;15.796;2024-02-28T01:54:23;70.40;;;28.10;;
58222;SDS011;44020;50.890;15.796;2024-02-28T01:56:50;69.30;;;27.10;;
58222;SDS011;44020;50.890;15.796;2024-02-28T01:59:17;66.70;;;27.90;;
58222;SDS011;44020;50.890;15.796;2024-02-28T02:01:45;57.80;;;23.40;;
58222;SDS011;44020;50.890;15.796;2024-02-28T02:04:12;60.30;;;24.00;;
58222;SDS011;44020;50.890;15.796;2024-02-28T02:06:41;60.00;;;23.40;;
58222;SDS011;44020;50.890;15.796;2024-02-28T02:09:09;58.20;;;21.50;;
58222;SDS011;44020;50.890;15.796;2024-02-28T02:11:38;54.70;;;21.40;;
58222;SDS011;44020;50.890;15.796;2024-02-28T02:14:05;53.70;;;22.30;;
58222;SDS011;44020;50.890;15.796;2024-02-28T02:16:33;55.10;;;20.30;;
58222;SDS011;44020;50.890;15.796;2024-02-28T02:19:00;55.40;;;22.10;;
58222;SDS011;44020;50.890;15.796;2024-02-28T02:21:31;55.80;;;22.70;;
58222;SDS011;44020;50.890;15.796;2024-02-28T02:24:07;64.40;;;24.20;;
58222;SDS011;44020;50.890;15.796;2024-02-28T02:26:34;56.90;;;22.90;;
58222;SDS011;44020;50.890;15.796;2024-02-28T02:29:02;57.30;;;23.40;;
58222;SDS011;44020;50.890;15.796;2024-02-28T02:31:29;64.70;;;25.30;;
58222;SDS011;44020;50.890;15.796;2024-02-28T02:33:57;61.40;;;23.90;;
58222;SDS011;44020;50.890;15.796;2024-02-28T02:36:25;57.50;;;22.80;;
58222;SDS011;44020;50.890;15.796;2024-02-28T02:38:52;52.40;;;21.10;;
58222;SDS011;44020;50.890;15.796;2024-02-28T02:41:19;53.80;;;21.30;;
58222;SDS011;44020;50.890;15.796;2024-02-28T02:43:49;48.40;;;19.30;;
58222;SDS011;44020;50.890;15.796;2024-02-28T02:46:16;49.90;;;19.60;;
58222;SDS011;44020;50.890;15.796;2024-02-28T02:48:44;51.90;;;19.70;;
58222;SDS011;44020;50.890;15.796;2024-02-28T02:51:11;48.80;;;20.60;;
58222;SDS011;44020;50.890;15.796;2024-02-28T02:53:38;49.60;;;19.20;;
58222;SDS011;44020;50.890;15.796;2024-02-28T02:56:06;53.70;;;19.60;;
58222;SDS011;44020;50.890;15.796;2024-02-28T02:58:34;49.30;;;20.60;;
58222;SDS011;44020;50.890;15.796;2024-02-28T03:01:01;52.10;;;20.80;;
58222;SDS011;44020;50.890;15.796;2024-02-28T03:03:28;48.70;;;20.20;;
58222;SDS011;44020;50.890;15.796;2024-02-28T03:05:55;55.80;;;20.00;;
58222;SDS011;44020;50.890;15.796;2024-02-28T03:08:23;56.10;;;20.40;;
58222;SDS011;44020;50.890;15.796;2024-02-28T03:10:50;52.50;;;20.70;;
58222;SDS011;44020;50.890;15.796;2024-02-28T03:13:18;53.00;;;21.40;;
58222;SDS011;44020;50.890;15.796;2024-02-28T03:15:45;54.10;;;20.60;;
58222;SDS011;44020;50.890;15.796;2024-02-28T03:18:13;46.90;;;18.50;;
58222;SDS011;44020;50.890;15.796;2024-02-28T03:20:40;98.50;;;35.10;;
58222;SDS011;44020;50.890;15.796;2024-02-28T03:23:07;58.20;;;23.00;;
58222;SDS011;44020;50.890;15.796;2024-02-28T03:25:35;48.60;;;19.60;;
58222;SDS011;44020;50.890;15.796;2024-02-28T03:28:02;51.70;;;22.10;;
58222;SDS011;44020;50.890;15.796;2024-02-28T03:30:30;63.00;;;26.40;;
58222;SDS011;44020;50.890;15.796;2024-02-28T03:32:58;53.80;;;21.20;;
58222;SDS011;44020;50.890;15.796;2024-02-28T03:35:25;51.70;;;20.50;;
58222;SDS011;44020;50.890;15.796;2024-02-28T03:37:52;48.10;;;19.20;;
58222;SDS011;44020;50.890;15.796;2024-02-28T03:40:19;48.90;;;19.70;;
58222;SDS011;44020;50.890;15.796;2024-02-28T03:42:47;54.30;;;20.20;;
58222;SDS011;44020;50.890;15.796;2024-02-28T03:45:14;45.20;;;17.30;;
58222;SDS011;44020;50.890;15.796;2024-02-28T03:47:41;42.60;;;17.60;;
58222;SDS011;44020;50.890;15.796;2024-02-28T03:50:08;42.80;;;16.80;;
58222;SDS011;44020;50.890;15.796;2024-02-28T03:52:35;40.20;;;16.10;;
58222;SDS011;44020;50.890;15.796;2024-02-28T03:55:02;39.90;;;16.90;;
58222;SDS011;44020;50.890;15.796;2024-02-28T03:57:29;42.80;;;17.30;;
58222;SDS011;44020;50.890;15.796;2024-02-28T03:59:56;44.80;;;18.20;;
58222;SDS011;44020;50.890;15.796;2024-02-28T04:02:24;35.50;;;15.90;;
58222;SDS011;44020;50.890;15.796;2024-02-28T04:04:51;32.00;;;13.90;;
58222;SDS011;44020;50.890;15.796;2024-02-28T04:07:18;31.30;;;14.60;;
58222;SDS011;44020;50.890;15.796;2024-02-28T04:09:45;33.70;;;15.30;;
58222;SDS011;44020;50.890;15.796;2024-02-28T04:12:12;34.70;;;15.20;;
58222;SDS011;44020;50.890;15.796;2024-02-28T04:14:39;34.30;;;14.40;;
58222;SDS011;44020;50.890;15.796;2024-02-28T04:17:07;38.30;;;16.40;;
58222;SDS011;44020;50.890;15.796;2024-02-28T04:19:34;37.00;;;15.20;;
58222;SDS011;44020;50.890;15.796;2024-02-28T04:22:06;39.00;;;15.60;;
58222;SDS011;44020;50.890;15.796;2024-02-28T04:24:32;38.80;;;16.10;;
58222;SDS011;44020;50.890;15.796;2024-02-28T04:27:00;36.80;;;15.50;;
58222;SDS011;44020;50.890;15.796;2024-02-28T04:29:30;31.70;;;14.90;;
58222;SDS011;44020;50.890;15.796;2024-02-28T04:31:57;33.30;;;14.90;;
58222;SDS011;44020;50.890;15.796;2024-02-28T04:34:25;35.10;;;15.60;;
58222;SDS011;44020;50.890;15.796;2024-02-28T04:36:52;30.10;;;13.70;;
58222;SDS011;44020;50.890;15.796;2024-02-28T04:39:21;33.10;;;14.20;;
58222;SDS011;44020;50.890;15.796;2024-02-28T04:41:49;37.80;;;14.20;;
58222;SDS011;44020;50.890;15.796;2024-02-28T04:44:16;33.40;;;13.80;;
58222;SDS011;44020;50.890;15.796;2024-02-28T04:46:43;34.20;;;14.20;;
58222;SDS011;44020;50.890;15.796;2024-02-28T04:49:10;35.20;;;15.20;;
58222;SDS011;44020;50.890;15.796;2024-02-28T04:51:38;35.30;;;15.10;;
58222;SDS011;44020;50.890;15.796;2024-02-28T04:54:05;32.40;;;13.00;;
58222;SDS011;44020;50.890;15.796;2024-02-28T04:56:32;29.70;;;12.70;;
58222;SDS011;44020;50.890;15.796;2024-02-28T04:59:00;34.50;;;14.10;;
58222;SDS011;44020;50.890;15.796;2024-02-28T05:01:27;44.90;;;16.30;;
58222;SDS011;44020;50.890;15.796;2024-02-28T05:03:55;40.30;;;15.60;;
58222;SDS011;44020;50.890;15.796;2024-02-28T05:06:22;32.40;;;14.30;;
58222;SDS011;44020;50.890;15.796;2024-02-28T05:08:49;28.30;;;13.60;;
58222;SDS011;44020;50.890;15.796;2024-02-28T05:11:16;31.00;;;14.90;;
58222;SDS011;44020;50.890;15.796;2024-02-28T05:13:43;28.10;;;13.60;;
58222;SDS011;44020;50.890;15.796;2024-02-28T05:16:14;30.90;;;14.30;;
58222;SDS011;44020;50.890;15.796;2024-02-28T05:18:45;34.80;;;17.20;;
58222;SDS011;44020;50.890;15.796;2024-02-28T05:21:13;29.40;;;14.20;;
58222;SDS011;44020;50.890;15.796;2024-02-28T05:23:40;24.20;;;12.30;;
58222;SDS011;44020;50.890;15.796;2024-02-28T05:26:07;23.60;;;11.90;;
58222;SDS011;44020;50.890;15.796;2024-02-28T05:28:35;22.90;;;11.80;;
58222;SDS011;44020;50.890;15.796;2024-02-28T05:33:52;28.30;;;15.50;;
58222;SDS011;44020;50.890;15.796;2024-02-28T05:36:21;23.50;;;12.40;;
58222;SDS011;44020;50.890;15.796;2024-02-28T05:38:49;22.30;;;12.00;;
58222;SDS011;44020;50.890;15.796;2024-02-28T05:41:17;28.00;;;13.90;;
58222;SDS011;44020;50.890;15.796;2024-02-28T05:43:45;24.80;;;13.40;;
58222;SDS011;44020;50.890;15.796;2024-02-28T05:46:13;31.00;;;15.80;;
58222;SDS011;44020;50.890;15.796;2024-02-28T05:48:42;22.10;;;11.10;;
58222;SDS011;44020;50.890;15.796;2024-02-28T05:51:10;18.60;;;9.50;;
58222;SDS011;44020;50.890;15.796;2024-02-28T05:53:37;18.40;;;9.00;;
58222;SDS011;44020;50.890;15.796;2024-02-28T05:56:05;25.80;;;12.00;;
58222;SDS011;44020;50.890;15.796;2024-02-28T05:58:43;20.80;;;11.10;;
58222;SDS011;44020;50.890;15.796;2024-02-28T06:01:11;19.10;;;10.00;;
58222;SDS011;44020;50.890;15.796;2024-02-28T06:03:39;18.90;;;10.70;;
58222;SDS011;44020;50.890;15.796;2024-02-28T06:06:06;21.20;;;10.70;;
58222;SDS011;44020;50.890;15.796;2024-02-28T06:08:37;28.80;;;15.10;;
58222;SDS011;44020;50.890;15.796;2024-02-28T06:11:06;26.40;;;13.60;;
58222;SDS011;44020;50.890;15.796;2024-02-28T06:13:34;26.60;;;13.80;;
58222;SDS011;44020;50.890;15.796;2024-02-28T06:16:01;29.00;;;15.20;;
58222;SDS011;44020;50.890;15.796;2024-02-28T06:18:30;24.50;;;12.50;;
58222;SDS011;44020;50.890;15.796;2024-02-28T06:21:00;26.10;;;13.50;;
58222;SDS011;44020;50.890;15.796;2024-02-28T06:23:27;22.80;;;11.60;;
58222;SDS011;44020;50.890;15.796;2024-02-28T06:25:55;22.50;;;12.60;;
58222;SDS011;44020;50.890;15.796;2024-02-28T06:28:23;22.00;;;12.40;;
58222;SDS011;44020;50.890;15.796;2024-02-28T06:30:51;23.10;;;13.00;;
58222;SDS011;44020;50.890;15.796;2024-02-28T06:33:18;20.80;;;11.90;;
58222;SDS011;44020;50.890;15.796;2024-02-28T06:35:46;22.90;;;11.00;;
58222;SDS011;44020;50.890;15.796;2024-02-28T06:38:13;20.40;;;10.50;;
58222;SDS011;44020;50.890;15.796;2024-02-28T06:40:40;21.50;;;10.80;;
58222;SDS011;44020;50.890;15.796;2024-02-28T06:43:09;19.70;;;10.50;;
58222;SDS011;44020;50.890;15.796;2024-02-28T06:45:36;18.30;;;10.20;;
58222;SDS011;44020;50.890;15.796;2024-02-28T06:48:03;30.20;;;15.60;;
58222;SDS011;44020;50.890;15.796;2024-02-28T06:50:31;33.60;;;16.10;;
58222;SDS011;44020;50.890;15.796;2024-02-28T06:52:58;33.40;;;15.40;;
58222;SDS011;44020;50.890;15.796;2024-02-28T06:55:25;37.10;;;18.70;;
58222;SDS011;44020;50.890;15.796;2024-02-28T06:57:52;35.90;;;17.80;;
58222;SDS011;44020;50.890;15.796;2024-02-28T07:00:19;29.20;;;15.10;;
58222;SDS011;44020;50.890;15.796;2024-02-28T07:02:46;27.80;;;12.80;;
58222;SDS011;44020;50.890;15.796;2024-02-28T07:05:14;20.80;;;10.40;;
58222;SDS011;44020;50.890;15.796;2024-02-28T07:07:41;21.10;;;10.90;;
58222;SDS011;44020;50.890;15.796;2024-02-28T07:10:08;18.30;;;9.60;;
58222;SDS011;44020;50.890;15.796;2024-02-28T07:12:36;22.10;;;9.70;;
58222;SDS011;44020;50.890;15.796;2024-02-28T07:15:04;27.00;;;12.80;;
58222;SDS011;44020;50.890;15.796;2024-02-28T07:17:31;27.90;;;13.70;;
58222;SDS011;44020;50.890;15.796;2024-02-28T07:19:59;22.20;;;12.00;;
58222;SDS011;44020;50.890;15.796;2024-02-28T07:22:27;27.50;;;13.30;;
58222;SDS011;44020;50.890;15.796;2024-02-28T07:24:55;29.20;;;13.40;;
58222;SDS011;44020;50.890;15.796;2024-02-28T07:27:22;21.30;;;10.80;;
58222;SDS011;44020;50.890;15.796;2024-02-28T07:29:50;18.40;;;9.50;;
58222;SDS011;44020;50.890;15.796;2024-02-28T07:32:18;19.10;;;10.60;;
58222;SDS011;44020;50.890;15.796;2024-02-28T07:34:45;23.20;;;12.20;;
58222;SDS011;44020;50.890;15.796;2024-02-28T07:37:12;23.80;;;11.30;;
58222;SDS011;44020;50.890;15.796;2024-02-28T07:39:39;22.40;;;11.20;;
58222;SDS011;44020;50.890;15.796;2024-02-28T07:42:06;27.20;;;11.60;;
58222;SDS011;44020;50.890;15.796;2024-02-28T07:44:34;25.20;;;11.10;;
58222;SDS011;44020;50.890;15.796;2024-02-28T07:47:01;21.20;;;9.90;;
58222;SDS011;44020;50.890;15.796;2024-02-28T07:49:29;23.50;;;10.90;;
58222;SDS011;44020;50.890;15.796;2024-02-28T07:51:57;26.40;;;12.00;;
58222;SDS011;44020;50.890;15.796;2024-02-28T07:54:25;22.70;;;10.30;;
58222;SDS011;44020;50.890;15.796;2024-02-28T07:56:53;20.90;;;9.40;;
58222;SDS011;44020;50.890;15.796;2024-02-28T07:59:20;20.90;;;9.50;;
58222;SDS011;44020;50.890;15.796;2024-02-28T08:01:48;21.80;;;9.90;;
58222;SDS011;44020;50.890;15.796;2024-02-28T08:04:15;15.80;;;8.30;;
58222;SDS011;44020;50.890;15.796;2024-02-28T08:06:43;18.40;;;8.80;;
58222;SDS011;44020;50.890;15.796;2024-02-28T08:09:10;15.70;;;7.70;;
58222;SDS011;44020;50.890;15.796;2024-02-28T08:11:39;17.00;;;8.40;;
58222;SDS011;44020;50.890;15.796;2024-02-28T08:14:05;14.40;;;8.20;;
58222;SDS011;44020;50.890;15.796;2024-02-28T08:16:32;13.80;;;7.00;;
58222;SDS011;44020;50.890;15.796;2024-02-28T08:18:59;13.30;;;7.40;;
58222;SDS011;44020;50.890;15.796;2024-02-28T08:21:26;13.80;;;6.70;;
58222;SDS011;44020;50.890;15.796;2024-02-28T08:23:54;16.30;;;9.00;;
58222;SDS011;44020;50.890;15.796;2024-02-28T08:26:22;13.00;;;7.20;;
58222;SDS011;44020;50.890;15.796;2024-02-28T08:28:50;13.30;;;6.70;;
58222;SDS011;44020;50.890;15.796;2024-02-28T08:31:16;14.00;;;6.60;;
58222;SDS011;44020;50.890;15.796;2024-02-28T08:33:44;12.30;;;6.80;;
58222;SDS011;44020;50.890;15.796;2024-02-28T08:36:11;14.80;;;6.50;;
58222;SDS011;44020;50.890;15.796;2024-02-28T08:38:38;11.70;;;6.20;;
58222;SDS011;44020;50.890;15.796;2024-02-28T08:41:05;13.60;;;6.60;;
58222;SDS011;44020;50.890;15.796;2024-02-28T08:43:37;12.80;;;6.70;;
58222;SDS011;44020;50.890;15.796;2024-02-28T08:46:05;13.50;;;7.50;;
58222;SDS011;44020;50.890;15.796;2024-02-28T08:48:33;20.50;;;11.80;;
58222;SDS011;44020;50.890;15.796;2024-02-28T08:51:00;19.60;;;10.20;;
58222;SDS011;44020;50.890;15.796;2024-02-28T08:53:28;20.00;;;8.20;;
58222;SDS011;44020;50.890;15.796;2024-02-28T08:55:55;16.30;;;7.90;;
58222;SDS011;44020;50.890;15.796;2024-02-28T08:58:22;17.10;;;7.70;;
58222;SDS011;44020;50.890;15.796;2024-02-28T09:00:49;12.10;;;6.30;;
58222;SDS011;44020;50.890;15.796;2024-02-28T09:03:16;11.30;;;5.70;;
58222;SDS011;44020;50.890;15.796;2024-02-28T09:05:44;14.40;;;6.80;;
58222;SDS011;44020;50.890;15.796;2024-02-28T09:08:12;32.50;;;13.80;;
58222;SDS011;44020;50.890;15.796;2024-02-28T09:10:39;21.20;;;9.90;;
58222;SDS011;44020;50.890;15.796;2024-02-28T09:13:07;17.50;;;9.00;;
58222;SDS011;44020;50.890;15.796;2024-02-28T09:15:36;19.50;;;10.70;;
58222;SDS011;44020;50.890;15.796;2024-02-28T09:18:04;18.70;;;10.50;;
58222;SDS011;44020;50.890;15.796;2024-02-28T09:20:31;18.30;;;9.20;;
58222;SDS011;44020;50.890;15.796;2024-02-28T09:22:59;17.50;;;9.90;;
58222;SDS011;44020;50.890;15.796;2024-02-28T09:25:26;17.50;;;10.10;;
58222;SDS011;44020;50.890;15.796;2024-02-28T09:27:54;13.70;;;8.70;;
58222;SDS011;44020;50.890;15.796;2024-02-28T09:30:21;16.20;;;9.70;;
58222;SDS011;44020;50.890;15.796;2024-02-28T09:32:49;15.10;;;9.00;;
58222;SDS011;44020;50.890;15.796;2024-02-28T09:35:16;14.10;;;8.10;;
58222;SDS011;44020;50.890;15.796;2024-02-28T09:37:43;13.50;;;8.40;;
58222;SDS011;44020;50.890;15.796;2024-02-28T09:40:10;17.80;;;9.90;;
58222;SDS011;44020;50.890;15.796;2024-02-28T09:42:38;16.20;;;9.70;;
58222;SDS011;44020;50.890;15.796;2024-02-28T09:45:07;17.20;;;9.70;;
58222;SDS011;44020;50.890;15.796;2024-02-28T09:47:36;18.10;;;10.00;;
58222;SDS011;44020;50.890;15.796;2024-02-28T09:50:04;15.10;;;9.20;;
58222;SDS011;44020;50.890;15.796;2024-02-28T09:52:32;16.60;;;10.10;;
58222;SDS011;44020;50.890;15.796;2024-02-28T09:54:59;17.70;;;10.20;;
58222;SDS011;44020;50.890;15.796;2024-02-28T09:57:27;17.00;;;10.10;;
58222;SDS011;44020;50.890;15.796;2024-02-28T09:59:59;16.50;;;9.40;;
58222;SDS011;44020;50.890;15.796;2024-02-28T10:02:27;16.70;;;10.00;;
58222;SDS011;44020;50.890;15.796;2024-02-28T10:05:15;15.30;;;9.40;;
58222;SDS011;44020;50.890;15.796;2024-02-28T10:07:55;18.20;;;10.80;;
58222;SDS011;44020;50.890;15.796;2024-02-28T10:10:22;20.10;;;12.30;;
58222;SDS011;44020;50.890;15.796;2024-02-28T10:12:50;22.00;;;12.20;;
58222;SDS011;44020;50.890;15.796;2024-02-28T10:15:17;20.50;;;11.60;;
58222;SDS011;44020;50.890;15.796;2024-02-28T10:17:44;18.80;;;11.00;;
58222;SDS011;44020;50.890;15.796;2024-02-28T10:20:11;23.10;;;12.40;;
58222;SDS011;44020;50.890;15.796;2024-02-28T10:22:39;20.50;;;11.70;;
58222;SDS011;44020;50.890;15.796;2024-02-28T10:25:06;17.60;;;10.20;;
58222;SDS011;44020;50.890;15.796;2024-02-28T10:27:34;16.60;;;9.90;;
58222;SDS011;44020;50.890;15.796;2024-02-28T10:30:02;16.30;;;9.40;;
58222;SDS011;44020;50.890;15.796;2024-02-28T10:32:34;14.30;;;9.20;;
58222;SDS011;44020;50.890;15.796;2024-02-28T10:35:02;13.80;;;8.50;;
58222;SDS011;44020;50.890;15.796;2024-02-28T10:37:30;15.50;;;9.70;;
58222;SDS011;44020;50.890;15.796;2024-02-28T10:39:59;17.80;;;10.20;;
58222;SDS011;44020;50.890;15.796;2024-02-28T10:42:27;13.50;;;8.80;;
58222;SDS011;44020;50.890;15.796;2024-02-28T10:44:57;14.00;;;8.70;;
58222;SDS011;44020;50.890;15.796;2024-02-28T10:47:26;15.50;;;8.80;;
58222;SDS011;44020;50.890;15.796;2024-02-28T10:49:55;13.30;;;7.90;;
58222;SDS011;44020;50.890;15.796;2024-02-28T10:52:23;15.70;;;9.00;;
58222;SDS011;44020;50.890;15.796;2024-02-28T10:54:53;13.90;;;7.80;;
58222;SDS011;44020;50.890;15.796;2024-02-28T10:57:22;19.00;;;10.00;;
58222;SDS011;44020;50.890;15.796;2024-02-28T10:59:52;15.60;;;9.20;;
58222;SDS011;44020;50.890;15.796;2024-02-28T11:02:21;16.10;;;10.20;;
58222;SDS011;44020;50.890;15.796;2024-02-28T11:04:53;12.10;;;7.50;;
58222;SDS011;44020;50.890;15.796;2024-02-28T11:07:21;17.00;;;9.20;;
58222;SDS011;44020;50.890;15.796;2024-02-28T11:09:53;13.30;;;8.20;;
58222;SDS011;44020;50.890;15.796;2024-02-28T11:14:59;11.70;;;7.10;;
58222;SDS011;44020;50.890;15.796;2024-02-28T11:17:29;12.90;;;8.30;;
58222;SDS011;44020;50.890;15.796;2024-02-28T11:19:57;12.90;;;7.90;;
58222;SDS011;44020;50.890;15.796;2024-02-28T11:22:28;13.80;;;8.00;;
58222;SDS011;44020;50.890;15.796;2024-02-28T11:24:56;12.50;;;7.50;;
58222;SDS011;44020;50.890;15.796;2024-02-28T11:27:24;13.50;;;8.50;;
58222;SDS011;44020;50.890;15.796;2024-02-28T11:29:52;13.80;;;8.20;;
58222;SDS011;44020;50.890;15.796;2024-02-28T11:32:19;16.90;;;10.00;;
58222;SDS011;44020;50.890;15.796;2024-02-28T11:34:47;14.50;;;8.30;;
58222;SDS011;44020;50.890;15.796;2024-02-28T11:37:14;18.70;;;11.20;;
58222;SDS011;44020;50.890;15.796;2024-02-28T11:39:46;16.00;;;9.80;;
58222;SDS011;44020;50.890;15.796;2024-02-28T11:42:15;15.10;;;8.90;;
58222;SDS011;44020;50.890;15.796;2024-02-28T11:44:43;12.20;;;7.40;;
58222;SDS011;44020;50.890;15.796;2024-02-28T11:47:19;16.30;;;9.20;;
58222;SDS011;44020;50.890;15.796;2024-02-28T11:49:46;14.20;;;7.50;;
58222;SDS011;44020;50.890;15.796;2024-02-28T11:52:13;17.40;;;9.40;;
58222;SDS011;44020;50.890;15.796;2024-02-28T11:54:40;20.40;;;10.30;;
58222;SDS011;44020;50.890;15.796;2024-02-28T11:57:07;17.00;;;8.90;;
58222;SDS011;44020;50.890;15.796;2024-02-28T11:59:40;11.70;;;6.70;;
58222;SDS011;44020;50.890;15.796;2024-02-28T12:02:13;15.30;;;8.90;;
58222;SDS011;44020;50.890;15.796;2024-02-28T12:04:41;16.30;;;9.20;;
58222;SDS011;44020;50.890;15.796;2024-02-28T12:07:09;12.00;;;7.40;;
58222;SDS011;44020;50.890;15.796;2024-02-28T12:09:37;18.00;;;11.40;;
58222;SDS011;44020;50.890;15.796;2024-02-28T12:12:06;10.20;;;5.50;;
58222;SDS011;44020;50.890;15.796;2024-02-28T12:14:36;14.00;;;8.00;;
58222;SDS011;44020;50.890;15.796;2024-02-28T12:19:35;9.80;;;4.50;;
58222;SDS011;44020;50.890;15.796;2024-02-28T12:22:02;11.00;;;6.10;;
58222;SDS011;44020;50.890;15.796;2024-02-28T12:24:30;15.50;;;8.30;;
58222;SDS011;44020;50.890;15.796;2024-02-28T12:26:57;16.50;;;8.30;;
58222;SDS011;44020;50.890;15.796;2024-02-28T12:29:24;11.80;;;6.40;;
58222;SDS011;44020;50.890;15.796;2024-02-28T12:31:51;8.80;;;5.00;;
58222;SDS011;44020;50.890;15.796;2024-02-28T12:34:18;9.40;;;4.90;;
58222;SDS011;44020;50.890;15.796;2024-02-28T12:36:46;9.90;;;6.00;;
58222;SDS011;44020;50.890;15.796;2024-02-28T12:39:13;9.60;;;5.90;;
58222;SDS011;44020;50.890;15.796;2024-02-28T12:41:40;10.00;;;6.70;;
58222;SDS011;44020;50.890;15.796;2024-02-28T12:44:07;11.40;;;7.20;;
58222;SDS011;44020;50.890;15.796;2024-02-28T12:46:35;10.50;;;5.80;;
58222;SDS011;44020;50.890;15.796;2024-02-28T12:49:04;11.10;;;5.70;;
58222;SDS011;44020;50.890;15.796;2024-02-28T12:51:41;9.70;;;5.80;;
58222;SDS011;44020;50.890;15.796;2024-02-28T12:54:12;8.00;;;5.10;;
58222;SDS011;44020;50.890;15.796;2024-02-28T12:56:42;13.50;;;7.80;;
58222;SDS011;44020;50.890;15.796;2024-02-28T12:59:10;14.00;;;8.80;;
58222;SDS011;44020;50.890;15.796;2024-02-28T13:01:38;16.70;;;9.20;;
58222;SDS011;44020;50.890;15.796;2024-02-28T13:04:06;12.30;;;6.40;;
58222;SDS011;44020;50.890;15.796;2024-02-28T13:06:33;8.70;;;5.50;;
58222;SDS011;44020;50.890;15.796;2024-02-28T13:09:01;20.40;;;9.60;;
58222;SDS011;44020;50.890;15.796;2024-02-28T13:11:28;18.70;;;9.40;;
58222;SDS011;44020;50.890;15.796;2024-02-28T13:13:55;27.80;;;12.60;;
58222;SDS011;44020;50.890;15.796;2024-02-28T13:16:23;17.00;;;9.10;;
58222;SDS011;44020;50.890;15.796;2024-02-28T13:18:50;11.80;;;6.80;;
58222;SDS011;44020;50.890;15.796;2024-02-28T13:21:17;15.10;;;8.20;;
58222;SDS011;44020;50.890;15.796;2024-02-28T13:23:45;15.80;;;9.00;;
58222;SDS011;44020;50.890;15.796;2024-02-28T13:26:14;12.40;;;7.30;;
58222;SDS011;44020;50.890;15.796;2024-02-28T13:28:44;18.50;;;9.10;;
58222;SDS011;44020;50.890;15.796;2024-02-28T13:31:12;25.30;;;11.70;;
58222;SDS011;44020;50.890;15.796;2024-02-28T13:33:40;14.70;;;7.70;;
58222;SDS011;44020;50.890;15.796;2024-02-28T13:36:08;27.30;;;14.80;;
58222;SDS011;44020;50.890;15.796;2024-02-28T13:38:36;33.60;;;17.50;;
58222;SDS011;44020;50.890;15.796;2024-02-28T13:41:03;52.50;;;21.00;;
58222;SDS011;44020;50.890;15.796;2024-02-28T13:43:31;47.40;;;18.70;;
58222;SDS011;44020;50.890;15.796;2024-02-28T13:45:58;43.60;;;16.10;;
58222;SDS011;44020;50.890;15.796;2024-02-28T13:48:29;37.70;;;15.60;;
58222;SDS011;44020;50.890;15.796;2024-02-28T13:50:58;35.80;;;14.30;;
58222;SDS011;44020;50.890;15.796;2024-02-28T13:53:26;20.20;;;10.20;;
58222;SDS011;44020;50.890;15.796;2024-02-28T13:55:54;20.90;;;9.70;;
58222;SDS011;44020;50.890;15.796;2024-02-28T13:58:21;15.10;;;9.00;;
58222;SDS011;44020;50.890;15.796;2024-02-28T14:00:49;22.40;;;11.60;;
58222;SDS011;44020;50.890;15.796;2024-02-28T14:03:16;24.70;;;12.10;;
58222;SDS011;44020;50.890;15.796;2024-02-28T14:05:44;41.90;;;21.50;;
58222;SDS011;44020;50.890;15.796;2024-02-28T14:08:11;31.80;;;15.70;;
58222;SDS011;44020;50.890;15.796;2024-02-28T14:10:39;37.50;;;18.20;;
58222;SDS011;44020;50.890;15.796;2024-02-28T14:13:06;31.00;;;15.60;;
58222;SDS011;44020;50.890;15.796;2024-02-28T14:15:33;49.70;;;22.10;;
58222;SDS011;44020;50.890;15.796;2024-02-28T14:18:03;39.10;;;18.70;;
58222;SDS011;44020;50.890;15.796;2024-02-28T14:20:30;42.70;;;19.80;;
58222;SDS011;44020;50.890;15.796;2024-02-28T14:22:57;36.20;;;17.50;;
58222;SDS011;44020;50.890;15.796;2024-02-28T14:25:24;31.40;;;17.00;;